Time;durP1;ratioP1;P1;durP2;ratioP2;P2;SDS_P1;SDS_P2;PMS_P1;PMS_P2;Temp;Humidity;BMP_temperature;BMP_pressure;BME280_temperature;BME280_humidity;BME280_pressure;Samples;Min_cycle;Max_cycle;Signal;HPM_P1;HPM_P2
2022/05/28 00:02:09;;;;;;;0.00;0.00;;;;;;;22.08;100.00;100790.25;2618220;39;20565;-64
2022/05/28 00:04:39;;;;;;;0.00;0.00;;;;;;;22.16;100.00;100778.84;2617835;54;20167;-64
2022/05/28 00:07:09;;;;;;;0.52;0.35;;;;;;;21.87;100.00;100782.75;2617852;54;20173;-64
2022/05/28 00:09:39;;;;;;;0.00;0.00;;;;;;;21.97;100.00;100781.81;2617843;54;20153;-64
2022/05/28 00:12:13;;;;;;;0.00;0.00;;;;;;;22.14;100.00;100771.09;2617827;54;20146;-64
2022/05/28 00:14:43;;;;;;;0.00;0.00;;;;;;;22.21;100.00;100773.91;2617759;54;20133;-63
2022/05/28 00:17:13;;;;;;;0.00;0.00;;;;;;;22.32;100.00;100768.25;2617825;54;20138;-63
2022/05/28 00:19:43;;;;;;;0.75;0.75;;;;;;;22.35;100.00;100774.03;2617733;54;20724;-63
2022/05/28 00:22:14;;;;;;;0.45;0.45;;;;;;;22.42;100.00;100771.56;2617770;54;20154;-64
2022/05/28 00:24:44;;;;;;;0.00;0.00;;;;;;;22.43;100.00;100762.63;2617900;54;20149;-64
2022/05/28 00:27:23;;;;;;;0.00;0.00;;;;;;;22.39;100.00;100756.84;2617806;54;20196;-63
2022/05/28 00:29:54;;;;;;;0.00;0.00;;;;;;;22.25;100.00;100762.00;2617876;54;20152;-63
2022/05/28 00:32:29;;;;;;;0.00;0.00;;;;;;;22.37;100.00;100753.56;2617852;54;20191;-63
2022/05/28 00:35:06;;;;;;;0.45;0.45;;;;;;;22.37;100.00;100755.38;2618310;39;20567;-63
2022/05/28 00:37:41;;;;;;;0.00;0.00;;;;;;;22.35;100.00;100744.13;2617823;54;20191;-64
2022/05/28 00:40:18;;;;;;;0.00;0.00;;;;;;;22.49;100.00;100743.47;2618154;39;20522;-64
2022/05/28 00:42:51;;;;;;;0.00;0.00;;;;;;;22.21;100.00;100735.06;2617885;54;20146;-66
2022/05/28 00:45:22;;;;;;;0.00;0.00;;;;;;;22.32;100.00;100725.97;2617780;54;20188;-64
2022/05/28 00:47:56;;;;;;;0.00;0.00;;;;;;;22.52;100.00;100732.53;2617893;54;20146;-64
2022/05/28 00:50:27;;;;;;;0.50;0.50;;;;;;;21.90;100.00;100741.97;2618121;39;20563;-62
2022/05/28 00:52:58;;;;;;;0.00;0.00;;;;;;;22.27;100.00;100733.56;2617767;54;20134;-63
2022/05/28 00:55:28;;;;;;;0.10;0.10;;;;;;;22.36;100.00;100733.41;2617683;54;20704;-64
2022/05/28 00:58:08;;;;;;;0.38;0.38;;;;;;;22.43;100.00;100720.31;2617847;54;20216;-64
2022/05/28 01:00:44;;;;;;;0.00;0.00;;;;;;;22.50;100.00;100717.84;2617949;39;20571;-63
2022/05/28 01:03:26;;;;;;;0.85;0.80;;;;;;;22.43;100.00;100711.59;2617685;54;20137;-64
2022/05/28 01:06:05;;;;;;;0.00;0.00;;;;;;;22.61;100.00;100710.38;2617572;47;20146;-64
2022/05/28 01:08:41;;;;;;;0.00;0.00;;;;;;;22.70;100.00;100703.28;2617587;54;20145;-64
2022/05/28 01:11:26;;;;;;;0.00;0.00;;;;;;;22.71;100.00;100695.16;2617628;54;20133;-64
2022/05/28 01:14:05;;;;;;;0.00;0.00;;;;;;;22.75;100.00;100698.28;2617771;54;20146;-64
2022/05/28 01:16:38;;;;;;;0.00;0.00;;;;;;;22.59;100.00;100696.47;2617534;54;20703;-64
2022/05/28 01:19:26;;;;;;;0.00;0.00;;;;;;;22.28;100.00;100692.94;2617656;54;20176;-64
2022/05/28 01:22:12;;;;;;;0.00;0.00;;;;;;;22.46;100.00;100696.22;2617427;54;20160;-63
2022/05/28 01:24:52;;;;;;;0.93;0.93;;;;;;;22.36;100.00;100693.75;2617609;54;20141;-64
2022/05/28 01:27:34;;;;;;;1.77;0.30;;;;;;;22.27;100.00;100693.91;2617315;54;20227;-64
2022/05/28 01:30:13;;;;;;;0.00;0.00;;;;;;;21.40;100.00;100690.06;2617913;54;20184;-64
2022/05/28 01:32:46;;;;;;;2.72;2.30;;;;;;;21.64;100.00;100688.47;2617659;54;20676;-64
2022/05/28 01:35:19;;;;;;;1.58;1.52;;;;;;;21.15;100.00;100683.09;2617438;47;20138;-63
2022/05/28 01:37:51;;;;;;;0.70;0.70;;;;;;;20.94;100.00;100686.09;2617387;54;20146;-63
2022/05/28 01:40:24;;;;;;;3.08;1.50;;;;;;;20.44;100.00;100685.22;2617361;54;20161;-63
2022/05/28 01:43:04;;;;;;;2.42;1.70;;;;;;;20.02;100.00;100693.78;2617550;54;20133;-63
2022/05/28 01:45:37;;;;;;;2.42;2.03;;;;;;;19.71;100.00;100703.06;2617333;54;20164;-63
2022/05/28 01:48:10;;;;;;;3.03;1.02;;;;;;;19.81;100.00;100701.22;2617563;54;20146;-64
2022/05/28 01:50:43;;;;;;;2.55;0.90;;;;;;;19.64;100.00;100707.28;2618370;54;20153;-63
2022/05/28 01:56:06;;;;;;;3.13;1.85;;;;;;;19.51;100.00;100699.75;2618236;54;20142;-63
2022/05/28 01:58:39;;;;;;;0.93;0.32;;;;;;;19.82;100.00;100704.66;2618399;54;20145;-63
2022/05/28 02:01:11;;;;;;;2.55;2.35;;;;;;;20.46;100.00;100701.72;2618286;54;20153;-64
2022/05/28 02:03:46;;;;;;;1.70;1.42;;;;;;;20.61;100.00;100689.59;2618327;54;20145;-64
2022/05/28 02:06:17;;;;;;;0.00;0.00;;;;;;;20.82;100.00;100692.66;2618097;54;20176;-64
2022/05/28 02:08:49;;;;;;;0.75;0.75;;;;;;;19.93;100.00;100700.00;2618270;54;20141;-63
2022/05/28 02:11:23;;;;;;;0.65;0.65;;;;;;;19.42;100.00;100698.00;2618129;54;20142;-63
2022/05/28 02:14:10;;;;;;;2.28;2.08;;;;;;;19.61;100.00;100699.72;2618452;39;20508;-64
2022/05/28 02:16:51;;;;;;;0.75;0.43;;;;;;;20.02;100.00;100704.31;2618103;54;20142;-63
2022/05/28 02:19:29;;;;;;;0.47;0.47;;;;;;;20.69;100.00;100702.84;2618264;54;20134;-63
2022/05/28 02:22:06;;;;;;;1.85;1.85;;;;;;;20.92;100.00;100703.09;2618013;54;20145;-64
2022/05/28 02:24:41;;;;;;;0.75;0.65;;;;;;;21.29;100.00;100708.03;2618392;54;20151;-63
2022/05/28 02:27:15;;;;;;;1.65;1.65;;;;;;;21.23;100.00;100695.47;2618137;54;20271;-63
2022/05/28 02:32:26;;;;;;;0.38;0.38;;;;;;;21.83;100.00;100698.69;2618791;54;20141;-63
2022/05/28 02:34:56;;;;;;;0.85;0.85;;;;;;;21.82;100.00;100692.63;2618125;54;20134;-63
2022/05/28 02:37:29;;;;;;;1.90;0.68;;;;;;;21.53;100.00;100697.53;2618298;47;20193;-64
2022/05/28 02:40:00;;;;;;;0.25;0.25;;;;;;;21.72;100.00;100697.22;2617974;54;20172;-64
2022/05/28 02:42:32;;;;;;;0.20;0.20;;;;;;;21.64;100.00;100699.84;2618548;39;20548;-64
2022/05/28 02:45:05;;;;;;;0.10;0.10;;;;;;;21.65;100.00;100706.78;2618161;54;20677;-63
2022/05/28 02:47:35;;;;;;;6.13;3.83;;;;;;;21.15;100.00;100708.63;2618175;54;20141;-64
2022/05/28 02:50:05;;;;;;;1.67;1.60;;;;;;;20.35;100.00;100704.59;2618144;54;20141;-64
2022/05/28 02:52:36;;;;;;;2.30;2.20;;;;;;;19.99;100.00;100709.91;2618446;39;20620;-64
2022/05/28 02:55:07;;;;;;;0.85;0.85;;;;;;;20.33;100.00;100710.03;2618081;39;20559;-64
2022/05/28 02:57:39;;;;;;;0.28;0.28;;;;;;;20.54;100.00;100705.22;2618344;54;20142;-63
2022/05/28 03:00:14;;;;;;;1.15;0.88;;;;;;;20.61;100.00;100704.59;2618138;54;20150;-63
2022/05/28 03:02:45;;;;;;;5.93;2.78;;;;;;;20.19;100.00;100704.44;2618239;47;20704;-64
2022/05/28 03:05:17;;;;;;;2.72;1.65;;;;;;;20.35;100.00;100709.88;2618150;46;20148;-64
2022/05/28 03:07:47;;;;;;;0.63;0.63;;;;;;;20.63;100.00;100711.34;2617897;54;20149;-63
2022/05/28 03:10:22;;;;;;;9.55;1.85;;;;;;;20.95;100.00;100716.78;2618062;54;20164;-63
2022/05/28 03:12:52;;;;;;;0.43;0.43;;;;;;;19.98;100.00;100728.50;2618507;39;20548;-64
2022/05/28 03:15:25;;;;;;;3.70;3.35;;;;;;;18.96;100.00;100732.31;2617997;54;20134;-63
2022/05/28 03:17:56;;;;;;;4.15;2.38;;;;;;;18.53;100.00;100717.97;2617958;54;20674;-63
2022/05/28 03:20:26;;;;;;;1.02;0.90;;;;;;;18.42;100.00;100725.94;2617942;48;20141;-63
2022/05/28 03:22:57;;;;;;;2.83;2.20;;;;;;;18.88;100.00;100729.59;2617799;54;20158;-64
2022/05/28 03:25:27;;;;;;;0.68;0.68;;;;;;;18.83;100.00;100730.00;2617934;54;20138;-63
2022/05/28 03:27:59;;;;;;;5.68;3.35;;;;;;;19.44;100.00;100729.47;2618038;54;20197;-64
2022/05/28 03:30:32;;;;;;;1.33;1.23;;;;;;;19.53;100.00;100728.56;2617911;54;20146;-63
2022/05/28 03:33:03;;;;;;;3.88;1.23;;;;;;;19.66;100.00;100723.75;2617848;54;20256;-63
2022/05/28 03:35:33;;;;;;;3.92;1.42;;;;;;;19.97;100.00;100722.41;2617797;54;20141;-63
2022/05/28 03:38:04;;;;;;;2.45;2.25;;;;;;;19.77;100.00;100720.91;2617970;54;20142;-63
2022/05/28 03:40:34;;;;;;;3.20;2.90;;;;;;;19.55;100.00;100716.06;2617926;54;20164;-64
2022/05/28 03:43:06;;;;;;;2.53;1.95;;;;;;;19.45;100.00;100713.53;2617896;54;20134;-63
2022/05/28 03:45:39;;;;;;;3.22;0.63;;;;;;;20.06;100.00;100720.66;2617997;54;20134;-63
2022/05/28 03:48:14;;;;;;;2.83;0.73;;;;;;;20.24;100.00;100718.00;2617720;54;20140;-63
2022/05/28 03:50:44;;;;;;;1.85;1.75;;;;;;;19.73;100.00;100719.56;2618119;39;20547;-64
2022/05/28 03:53:15;;;;;;;1.83;1.33;;;;;;;19.75;100.00;100717.59;2618246;39;20565;-63
2022/05/28 03:55:46;;;;;;;0.80;0.65;;;;;;;19.44;100.00;100713.66;2617767;54;20137;-64
2022/05/28 03:58:16;;;;;;;1.65;1.35;;;;;;;19.32;100.00;100722.72;2617754;54;20142;-63
2022/05/28 04:00:49;;;;;;;2.53;2.42;;;;;;;19.48;100.00;100720.28;2617804;54;20233;-63
2022/05/28 04:03:19;;;;;;;0.80;0.80;;;;;;;19.56;100.00;100728.28;2617795;54;20184;-64
2022/05/28 04:05:50;;;;;;;7.93;2.20;;;;;;;19.08;100.00;100726.72;2617250;54;20130;-64
2022/05/28 04:08:20;;;;;;;1.77;1.65;;;;;;;18.93;100.00;100728.19;2617303;47;20156;-62
2022/05/28 04:10:54;;;;;;;5.53;5.20;;;;;;;18.93;100.00;100727.34;2617112;54;20141;-64
2022/05/28 04:13:24;;;;;;;2.35;2.15;;;;;;;18.74;100.00;100725.63;2617400;54;20148;-63
2022/05/28 04:15:57;;;;;;;1.45;1.35;;;;;;;18.69;100.00;100733.94;2617254;47;20142;-63
2022/05/28 04:18:27;;;;;;;2.95;2.75;;;;;;;18.80;100.00;100725.06;2617382;54;20141;-62
2022/05/28 04:20:57;;;;;;;15.07;5.35;;;;;;;18.48;100.00;100733.28;2617116;54;20148;-64
2022/05/28 04:23:32;;;;;;;1.63;1.42;;;;;;;18.75;100.00;100742.22;2617228;54;20195;-63
2022/05/28 04:26:04;;;;;;;3.58;1.63;;;;;;;18.77;100.00;100738.50;2617073;54;20172;-63
2022/05/28 04:28:37;;;;;;;2.88;2.75;;;;;;;18.62;100.00;100738.09;2617411;54;20176;-63
2022/05/28 04:31:10;;;;;;;1.85;1.75;;;;;;;18.42;100.00;100739.09;2617224;54;20141;-62
2022/05/28 04:33:44;;;;;;;2.90;2.65;;;;;;;18.74;100.00;100733.50;2617008;47;20244;-63
2022/05/28 04:36:14;;;;;;;4.80;4.00;;;;;;;18.69;100.00;100746.25;2617302;39;20538;-62
2022/05/28 04:38:46;;;;;;;3.58;1.90;;;;;;;18.30;100.00;100757.78;2617217;54;20147;-64
2022/05/28 04:41:16;;;;;;;4.97;4.35;;;;;;;18.10;100.00;100755.16;2617360;54;20145;-62
2022/05/28 04:43:46;;;;;;;0.70;0.70;;;;;;;18.68;100.00;100748.06;2617069;54;20140;-63
2022/05/28 04:46:19;;;;;;;4.03;2.83;;;;;;;18.93;100.00;100754.47;2617025;54;20147;-64
2022/05/28 04:48:50;;;;;;;3.95;3.65;;;;;;;18.40;100.00;100758.59;2616949;54;20714;-64
2022/05/28 04:51:20;;;;;;;4.03;3.35;;;;;;;18.52;100.00;100749.63;2616816;54;20168;-63
2022/05/28 04:53:50;;;;;;;3.75;3.40;;;;;;;18.32;100.00;100755.84;2617166;54;20152;-64
2022/05/28 04:56:25;;;;;;;2.55;0.98;;;;;;;19.02;100.00;100760.66;2617094;54;20164;-63
2022/05/28 04:58:59;;;;;;;4.13;2.58;;;;;;;18.94;100.00;100758.75;2617017;54;20165;-63
2022/05/28 05:01:32;;;;;;;3.97;3.65;;;;;;;18.77;100.00;100764.78;2617078;54;20145;-63
2022/05/28 05:04:02;;;;;;;1.50;1.25;;;;;;;19.46;100.00;100759.91;2616790;54;20141;-63
2022/05/28 05:06:37;;;;;;;1.50;1.08;;;;;;;19.55;100.00;100755.56;2617294;54;20156;-63
2022/05/28 05:09:07;;;;;;;0.80;0.80;;;;;;;19.92;100.00;100758.06;2616914;54;20141;-64
2022/05/28 05:11:38;;;;;;;1.88;1.75;;;;;;;19.80;100.00;100765.38;2616812;54;20155;-63
2022/05/28 05:14:12;;;;;;;3.42;1.85;;;;;;;19.87;100.00;100766.41;2616966;39;20546;-63
2022/05/28 05:16:45;;;;;;;0.15;0.15;;;;;;;20.44;100.00;100767.75;2616947;54;20142;-63
2022/05/28 05:19:15;;;;;;;1.38;1.38;;;;;;;20.51;100.00;100760.03;2617014;54;20141;-63
2022/05/28 05:21:45;;;;;;;3.10;2.85;;;;;;;20.23;100.00;100763.75;2616893;54;20141;-63
2022/05/28 05:24:15;;;;;;;2.67;2.53;;;;;;;20.10;100.00;100764.97;2617610;54;20165;-63
2022/05/28 05:26:48;;;;;;;0.93;0.93;;;;;;;20.66;100.00;100755.88;2617658;54;20948;-63
2022/05/28 05:29:29;;;;;;;1.92;1.80;;;;;;;21.56;100.00;100754.47;2618135;39;20655;-63
2022/05/28 05:32:02;;;;;;;0.40;0.40;;;;;;;21.62;100.00;100749.38;2617788;54;20141;-64
2022/05/28 05:34:37;;;;;;;6.93;3.88;;;;;;;21.40;100.00;100748.16;2617877;54;20685;-64
2022/05/28 05:37:08;;;;;;;8.73;5.03;;;;;;;21.30;100.00;100752.75;2617983;54;20142;-64
2022/05/28 05:39:38;;;;;;;5.75;3.13;;;;;;;21.49;100.00;100754.28;2617747;54;20141;-64
2022/05/28 05:42:09;;;;;;;1.52;1.38;;;;;;;21.52;100.00;100759.25;2618033;54;20141;-64
2022/05/28 05:44:39;;;;;;;3.72;1.00;;;;;;;21.62;100.00;100746.75;2618293;54;20164;-64
2022/05/28 05:47:12;;;;;;;0.57;0.57;;;;;;;21.39;100.00;100745.66;2618154;54;20148;-64
2022/05/28 05:49:43;;;;;;;3.63;3.30;;;;;;;21.59;100.00;100754.97;2618152;54;20134;-64
2022/05/28 05:52:13;;;;;;;3.75;3.42;;;;;;;21.34;100.00;100746.19;2618265;54;20164;-64
2022/05/28 05:54:47;;;;;;;2.58;2.22;;;;;;;21.73;100.00;100750.88;2617921;54;20141;-64
2022/05/28 05:57:17;;;;;;;3.30;2.60;;;;;;;22.36;100.00;100727.28;2618301;54;20148;-64
2022/05/28 05:59:47;;;;;;;6.80;2.38;;;;;;;22.59;100.00;100732.72;2618057;54;20669;-64
2022/05/28 06:02:20;;;;;;;0.90;0.90;;;;;;;23.17;100.00;100735.84;2618136;54;20130;-64
2022/05/28 06:04:50;;;;;;;2.03;1.85;;;;;;;23.49;100.00;100721.63;2618105;54;20134;-64
2022/05/28 06:07:20;;;;;;;1.85;0.82;;;;;;;23.79;100.00;100712.78;2618264;54;20141;-64
2022/05/28 06:09:51;;;;;;;0.90;0.90;;;;;;;23.57;100.00;100708.31;2618284;54;20134;-64
2022/05/28 06:12:21;;;;;;;0.13;0.13;;;;;;;23.99;100.00;100709.69;2618090;54;20141;-64
2022/05/28 06:14:51;;;;;;;5.68;3.05;;;;;;;23.97;100.00;100704.53;2618158;54;20225;-64
2022/05/28 06:17:24;;;;;;;0.77;0.77;;;;;;;23.95;100.00;100711.03;2618198;51;20678;-64
2022/05/28 06:19:58;;;;;;;0.98;0.98;;;;;;;24.07;100.00;100706.97;2618103;54;20141;-65
2022/05/28 06:22:28;;;;;;;0.82;0.43;;;;;;;24.07;100.00;100696.34;2617897;54;20142;-64
2022/05/28 06:24:58;;;;;;;1.80;0.93;;;;;;;23.76;100.00;100693.78;2617174;47;20146;-64
2022/05/28 06:27:28;;;;;;;5.47;3.72;;;;;;;23.32;100.00;100698.84;2616147;54;20246;-65
2022/05/28 06:29:59;;;;;;;1.42;0.68;;;;;;;22.97;100.00;100699.38;2616671;54;20145;-66
2022/05/28 06:32:31;;;;;;;0.68;0.68;;;;;;;22.77;100.00;100694.50;2617239;54;20149;-65
2022/05/28 06:35:02;;;;;;;1.58;1.38;;;;;;;21.87;100.00;100708.78;2616916;47;20142;-63
2022/05/28 06:37:32;;;;;;;4.38;3.47;;;;;;;21.84;100.00;100713.56;2617352;54;20145;-66
2022/05/28 06:40:02;;;;;;;2.45;1.98;;;;;;;22.36;100.00;100698.19;2617059;54;20142;-65
2022/05/28 06:42:39;;;;;;;2.30;1.65;;;;;;;22.77;100.00;100694.50;2616549;47;20149;-64
2022/05/28 06:45:15;;;;;;;0.38;0.38;;;;;;;23.36;100.00;100691.38;2616605;54;20172;-64
2022/05/28 06:47:48;;;;;;;1.38;1.38;;;;;;;23.73;100.00;100691.50;2616451;47;20149;-65
2022/05/28 06:53:09;;;;;;;4.10;3.58;;;;;;;24.12;100.00;100686.84;2616479;54;20141;-64
2022/05/28 06:55:40;;;;;;;2.72;1.55;;;;;;;24.19;100.00;100694.94;2616553;54;20149;-64
2022/05/28 06:58:10;;;;;;;0.77;0.30;;;;;;;24.58;100.00;100686.75;2616488;54;20149;-65
2022/05/28 07:00:40;;;;;;;0.45;0.45;;;;;;;24.74;100.00;100685.72;2616868;39;20565;-65
2022/05/28 07:03:21;;;;;;;0.20;0.20;;;;;;;24.64;100.00;100681.50;2616544;54;20156;-64
2022/05/28 07:05:57;;;;;;;0.43;0.43;;;;;;;24.56;100.00;100684.25;2616401;54;20164;-65
2022/05/28 07:08:31;;;;;;;0.13;0.13;;;;;;;24.90;100.00;100688.22;2616859;54;20145;-65
2022/05/28 07:11:05;;;;;;;1.10;0.85;;;;;;;25.03;100.00;100691.03;2616972;54;20141;-64
2022/05/28 07:13:37;;;;;;;0.52;0.52;;;;;;;24.98;100.00;100693.41;2618699;31;20596;-64
2022/05/28 07:16:12;;;;;;;3.47;1.25;;;;;;;25.22;100.00;100694.91;2617885;54;20280;-65
2022/05/28 07:18:46;;;;;;;0.00;0.00;;;;;;;25.58;100.00;100682.47;2617780;46;20153;-65
2022/05/28 07:21:16;;;;;;;1.67;1.55;;;;;;;25.86;100.00;100672.69;2617951;54;20148;-65
2022/05/28 07:23:46;;;;;;;0.75;0.75;;;;;;;25.83;100.00;100674.94;2617949;54;20137;-65
2022/05/28 07:26:19;;;;;;;0.60;0.60;;;;;;;25.93;100.00;100673.56;2617950;54;20181;-65
2022/05/28 07:28:50;;;;;;;0.28;0.28;;;;;;;25.86;100.00;100671.88;2617963;54;20753;-65
2022/05/28 07:31:23;;;;;;;4.05;3.47;;;;;;;25.82;100.00;100668.78;2617925;54;20729;-65
2022/05/28 07:33:56;;;;;;;1.65;0.77;;;;;;;26.17;100.00;100664.34;2618104;46;20149;-65
2022/05/28 07:36:28;;;;;;;1.48;1.38;;;;;;;25.20;100.00;100675.72;2617788;47;20133;-63
2022/05/28 07:38:59;;;;;;;0.10;0.10;;;;;;;25.34;100.00;100678.31;2617961;54;20141;-63
2022/05/28 07:41:29;;;;;;;0.47;0.47;;;;;;;25.94;100.00;100666.41;2617850;54;20142;-64
2022/05/28 07:44:00;;;;;;;1.00;1.00;;;;;;;25.67;100.00;100664.56;2617796;54;20692;-65
2022/05/28 07:46:33;;;;;;;0.10;0.10;;;;;;;25.78;100.00;100675.50;2617536;54;20149;-64
2022/05/28 07:49:08;;;;;;;0.08;0.08;;;;;;;26.14;100.00;100669.22;2617881;54;20183;-65
2022/05/28 07:51:38;;;;;;;0.00;0.00;;;;;;;26.46;100.00;100664.16;2617804;54;20669;-64
2022/05/28 07:54:09;;;;;;;1.65;1.65;;;;;;;26.44;100.00;100660.84;2617900;54;20141;-65
2022/05/28 07:56:40;;;;;;;0.80;0.43;;;;;;;26.42;100.00;100662.06;2617626;54;20157;-64
2022/05/28 07:59:10;;;;;;;0.30;0.30;;;;;;;26.54;100.00;100655.19;2617913;54;20156;-64
2022/05/28 08:01:44;;;;;;;0.00;0.00;;;;;;;26.61;100.00;100644.56;2617878;54;20171;-64
2022/05/28 08:04:18;;;;;;;0.00;0.00;;;;;;;26.88;100.00;100641.03;2617875;54;20142;-64
2022/05/28 08:06:52;;;;;;;0.20;0.20;;;;;;;26.78;100.00;100641.38;2617613;54;20662;-64
2022/05/28 08:09:22;;;;;;;0.00;0.00;;;;;;;26.90;100.00;100633.66;2618233;39;20534;-64
2022/05/28 08:11:53;;;;;;;0.52;0.47;;;;;;;26.86;100.00;100633.25;2617794;54;20149;-64
2022/05/28 08:14:23;;;;;;;0.75;0.75;;;;;;;26.82;100.00;100633.81;2617709;54;20487;-65
2022/05/28 08:16:55;;;;;;;0.30;0.30;;;;;;;27.03;100.00;100636.38;2617516;54;20138;-64
2022/05/28 08:19:34;;;;;;;0.10;0.10;;;;;;;26.99;100.00;100630.63;2617483;54;20625;-64
2022/05/28 08:24:55;;;;;;;0.65;0.65;;;;;;;26.78;100.00;100629.91;2617021;54;20140;-64
2022/05/28 08:27:25;;;;;;;3.55;2.67;;;;;;;27.08;100.00;100627.78;2617160;54;20668;-65
2022/05/28 08:30:00;;;;;;;0.70;0.70;;;;;;;27.17;100.00;100629.22;2617815;54;20141;-67
2022/05/28 08:32:30;;;;;;;0.17;0.17;;;;;;;27.27;100.00;100633.16;2617731;47;20156;-68
2022/05/28 08:35:04;;;;;;;1.52;1.48;;;;;;;27.00;100.00;100644.78;2617743;47;20674;-66
2022/05/28 08:37:35;;;;;;;0.00;0.00;;;;;;;27.05;100.00;100636.16;2617670;54;20137;-67
2022/05/28 08:40:06;;;;;;;2.38;1.98;;;;;;;26.99;100.00;100640.47;2617840;47;20222;-68
2022/05/28 08:42:39;;;;;;;0.10;0.10;;;;;;;27.27;100.00;100632.31;2617899;47;20157;-67
2022/05/28 08:45:10;;;;;;;0.05;0.05;;;;;;;27.57;100.00;100628.28;2617949;47;20684;-66
2022/05/28 08:47:44;;;;;;;1.33;1.27;;;;;;;27.84;100.00;100629.13;2617616;54;20141;-65
2022/05/28 08:50:19;;;;;;;4.10;3.72;;;;;;;28.04;96.16;100629.09;2617536;47;20141;-68
2022/05/28 08:52:52;;;;;;;0.00;0.00;;;;;;;28.29;90.04;100630.91;2617481;54;20145;-66
2022/05/28 08:55:25;;;;;;;0.10;0.10;;;;;;;28.80;86.05;100628.31;2618177;39;20562;-66
2022/05/28 08:58:00;;;;;;;1.05;1.02;;;;;;;28.95;79.24;100627.19;2618196;54;20137;-66
2022/05/28 09:00:37;;;;;;;0.30;0.30;;;;;;;29.14;76.75;100626.25;2619054;39;20553;-65
2022/05/28 09:03:11;;;;;;;0.80;0.73;;;;;;;28.04;80.73;100621.91;2618411;54;20141;-66
2022/05/28 09:05:51;;;;;;;0.00;0.00;;;;;;;27.64;89.67;100625.63;2618467;54;20136;-65
2022/05/28 09:08:29;;;;;;;0.13;0.13;;;;;;;28.54;85.03;100617.69;2618425;54;20666;-66
2022/05/28 09:11:08;;;;;;;0.00;0.00;;;;;;;29.13;80.56;100612.06;2618342;54;20142;-65
2022/05/28 09:13:41;;;;;;;0.00;0.00;;;;;;;29.36;77.49;100608.88;2618394;54;20141;-66
2022/05/28 09:16:25;;;;;;;0.50;0.43;;;;;;;29.55;76.20;100591.88;2618629;54;20149;-65
2022/05/28 09:18:59;;;;;;;1.02;1.02;;;;;;;29.36;77.48;100600.03;2618356;54;20133;-67
2022/05/28 09:21:36;;;;;;;1.30;1.10;;;;;;;29.39;73.89;100599.59;2618422;54;20183;-69
2022/05/28 09:24:16;;;;;;;2.83;0.40;;;;;;;29.47;76.02;100599.34;2618651;54;20142;-66
2022/05/28 09:27:04;;;;;;;0.38;0.38;;;;;;;29.62;84.94;100605.16;2618206;54;20239;-66
2022/05/28 09:32:57;;;;;;;2.00;1.88;;;;;;;28.40;100.00;100593.94;2618177;54;20149;-66
2022/05/28 09:35:48;;;;;;;4.55;2.72;;;;;;;28.09;100.00;100597.28;2618461;54;20310;-65
2022/05/28 09:38:34;;;;;;;0.43;0.40;;;;;;;28.04;100.00;100603.25;2618143;54;20180;-66
2022/05/28 09:41:22;;;;;;;0.95;0.95;;;;;;;27.91;100.00;100595.25;2618303;54;20164;-64
2022/05/28 09:44:09;;;;;;;1.17;1.15;;;;;;;28.06;100.00;100605.69;2618232;54;20188;-66
2022/05/28 09:46:42;;;;;;;0.68;0.17;;;;;;;28.11;100.00;100601.41;2618248;54;20134;-65
2022/05/28 09:49:17;;;;;;;1.45;1.13;;;;;;;27.63;100.00;100576.81;2618257;54;20237;-65
2022/05/28 09:51:58;;;;;;;2.97;2.78;;;;;;;27.47;100.00;100576.41;2618662;39;20572;-66
2022/05/28 09:54:33;;;;;;;2.38;2.15;;;;;;;27.60;100.00;100595.91;2618308;47;20689;-66
2022/05/28 09:57:12;;;;;;;2.53;2.17;;;;;;;27.51;100.00;100588.31;2618206;54;20164;-64
2022/05/28 09:59:55;;;;;;;1.13;1.13;;;;;;;27.48;100.00;100602.03;2618485;54;20191;-66
2022/05/28 10:02:32;;;;;;;0.50;0.50;;;;;;;27.50;100.00;100607.97;2618197;54;20673;-65
2022/05/28 10:05:08;;;;;;;7.47;1.77;;;;;;;27.46;100.00;100596.88;2618172;54;20163;-66
2022/05/28 10:07:44;;;;;;;1.35;1.25;;;;;;;27.85;100.00;100596.06;2618131;47;20677;-65
2022/05/28 10:10:20;;;;;;;5.13;3.97;;;;;;;27.53;100.00;100596.91;2617967;47;20689;-66
2022/05/28 10:12:51;;;;;;;4.97;2.35;;;;;;;27.57;100.00;100593.63;2618511;54;20142;-67
2022/05/28 10:15:24;;;;;;;4.35;2.38;;;;;;;27.67;100.00;100590.56;2618343;54;20148;-66
2022/05/28 10:17:58;;;;;;;1.08;0.90;;;;;;;27.68;100.00;100571.69;2618093;54;20142;-65
2022/05/28 10:20:29;;;;;;;6.22;2.97;;;;;;;27.74;100.00;100583.38;2618152;54;20142;-64
2022/05/28 10:23:11;;;;;;;0.55;0.55;;;;;;;27.52;100.00;100563.28;2618240;54;20184;-63
2022/05/28 10:25:53;;;;;;;5.82;4.28;;;;;;;27.27;100.00;100582.53;2618150;54;20167;-65
2022/05/28 10:31:17;;;;;;;1.92;1.58;;;;;;;27.00;100.00;100576.31;2618155;54;20134;-65
2022/05/28 10:33:48;;;;;;;6.07;3.45;;;;;;;26.86;100.00;100571.16;2618037;54;20142;-65
2022/05/28 10:36:20;;;;;;;3.42;2.42;;;;;;;26.59;100.00;100566.75;2618356;39;20524;-66
2022/05/28 10:38:54;;;;;;;5.53;4.28;;;;;;;26.43;100.00;100557.28;2618059;54;20134;-64
2022/05/28 10:41:29;;;;;;;4.30;3.90;;;;;;;25.78;100.00;100542.59;2618110;54;20677;-64
2022/05/28 10:44:00;;;;;;;4.70;4.10;;;;;;;26.01;100.00;100552.94;2617837;47;20150;-66
2022/05/28 10:46:49;;;;;;;2.15;1.50;;;;;;;26.16;100.00;100544.84;2618117;54;20157;-66
2022/05/28 10:49:33;;;;;;;4.30;1.30;;;;;;;26.19;100.00;100540.00;2618097;54;20141;-66
2022/05/28 10:52:17;;;;;;;3.03;2.83;;;;;;;25.64;100.00;100540.84;2618007;54;20148;-65
2022/05/28 10:55:00;;;;;;;2.55;2.22;;;;;;;25.79;100.00;100549.56;2617993;54;20164;-65
2022/05/28 10:57:54;;;;;;;4.88;4.47;;;;;;;25.91;100.00;100549.81;2618101;54;20142;-66
2022/05/28 11:00:31;;;;;;;4.63;3.35;;;;;;;25.97;100.00;100549.84;2618153;54;20148;-65
2022/05/28 11:03:36;;;;;;;4.57;3.28;;;;;;;25.79;100.00;100538.09;2617993;54;20161;-66
2022/05/28 11:06:25;;;;;;;4.28;2.97;;;;;;;25.70;100.00;100541.91;2618090;47;20140;-65
2022/05/28 11:09:03;;;;;;;1.70;1.60;;;;;;;26.03;100.00;100530.47;2617832;54;20685;-65
2022/05/28 11:11:55;;;;;;;4.75;3.17;;;;;;;25.96;100.00;100520.78;2618094;54;20658;-64
2022/05/28 11:15:00;;;;;;;3.13;1.65;;;;;;;26.16;100.00;100529.69;2617873;47;20169;-65
2022/05/28 11:17:47;;;;;;;3.42;3.03;;;;;;;26.06;100.00;100529.25;2617678;54;20248;-65
2022/05/28 11:20:24;;;;;;;3.45;3.00;;;;;;;25.90;100.00;100534.88;2618020;54;20133;-64
2022/05/28 11:23:23;;;;;;;5.93;3.35;;;;;;;26.03;100.00;100521.66;2617858;54;20142;-66
2022/05/28 11:26:03;;;;;;;3.55;3.30;;;;;;;26.46;100.00;100520.44;2617750;54;20142;-66
2022/05/28 11:28:48;;;;;;;1.33;0.85;;;;;;;26.66;100.00;100514.34;2618158;54;20715;-65
2022/05/28 11:31:32;;;;;;;5.43;2.40;;;;;;;26.47;100.00;100522.09;2618182;54;20171;-65
2022/05/28 11:34:15;;;;;;;1.63;1.52;;;;;;;26.51;100.00;100515.34;2617846;54;20138;-67
2022/05/28 11:36:56;;;;;;;6.72;4.13;;;;;;;26.37;100.00;100516.31;2618122;54;20268;-65
2022/05/28 11:39:32;;;;;;;3.30;2.03;;;;;;;26.53;100.00;100520.47;2617880;54;20156;-64
2022/05/28 11:42:15;;;;;;;2.42;1.38;;;;;;;26.41;100.00;100516.72;2618047;54;20269;-66
2022/05/28 11:44:52;;;;;;;4.30;2.55;;;;;;;25.81;100.00;100515.59;2617899;47;20159;-65
2022/05/28 11:47:38;;;;;;;5.88;4.03;;;;;;;25.50;100.00;100516.00;2617967;54;20141;-66
2022/05/28 11:53:12;;;;;;;3.90;2.95;;;;;;;25.82;100.00;100511.13;2617828;54;20662;-65
2022/05/28 11:55:45;;;;;;;6.65;4.18;;;;;;;25.60;100.00;100511.16;2617781;47;20164;-65
2022/05/28 11:58:18;;;;;;;2.63;2.42;;;;;;;25.91;100.00;100502.78;2617844;54;20142;-65
2022/05/28 12:00:58;;;;;;;4.45;3.80;;;;;;;25.93;100.00;100503.41;2617745;54;20148;-65
2022/05/28 12:03:34;;;;;;;1.55;1.45;;;;;;;26.12;100.00;100509.81;2617659;54;20148;-65
2022/05/28 12:06:23;;;;;;;1.67;1.27;;;;;;;26.59;100.00;100506.38;2618069;54;20276;-65
2022/05/28 12:09:04;;;;;;;1.52;1.38;;;;;;;26.47;100.00;100506.13;2617763;54;20160;-65
2022/05/28 12:11:49;;;;;;;1.30;1.20;;;;;;;27.45;100.00;100499.28;2617875;54;20217;-65